Oasis of the Seas — C6XS7 — position and weather

sailwx.info

Track history (hours):
 
Tides and Currents Weather Stations Pressure Air Temp Water Temp Dewpoint Dewpoint Depression Visibility Wind Speed Wind Dir Waves Ship Positions

Oasis of the Seas

Last reported at 2019-Jul-22 05:30 UTC. Time now 2019-Jul-22 05:42 UTC.
Position N 39°33' E 002°38'.

Length 360 m; draft 9.3 m.

Type: Passenger vessel. MMSI: 311020600.

Date/timePositionNaut miles runAvg speedWind from/ knotsBaromVisibWave heightAir tempDewpointWater temp
2019-Jul-22 05:30N 39°33' E 002°38'1 2.2
2019-Jul-22 05:00N 39°32' E 002°38'5 9.2
2019-Jul-22 04:30N 39°28' E 002°35'510.7
2019-Jul-22 04:00N 39°24' E 002°31'510.7
2019-Jul-22 03:30N 39°22' E 002°25'510.5
2019-Jul-22 02:59N 39°25' E 002°19'1111.1
2019-Jul-22 02:00N 39°30' E 002°06'9911.5 070 / 81021.810.8 26.0 29.0
2019-Jul-21 17:24N 41°09' E 002°10'511.4
2019-Jul-21 17:01N 41°13' E 002°10'611.3
2019-Jul-21 16:31N 41°19' E 002°10'3 5.5
2019-Jul-21 16:00N 41°22' E 002°11'0 0.2
2019-Jul-21 15:29N 41°22' E 002°11'0 0.0
2019-Jul-21 14:56N 41°22' E 002°11'0 0.0
2019-Jul-21 14:29N 41°22' E 002°11'0 0.0
2019-Jul-21 13:59N 41°22' E 002°11'0 0.0
2019-Jul-21 13:29N 41°22' E 002°11'0 0.0
2019-Jul-21 12:59N 41°22' E 002°11'0 0.0
2019-Jul-21 12:29N 41°22' E 002°11'0 0.0
2019-Jul-21 11:59N 41°22' E 002°11'0 0.0
2019-Jul-21 11:29N 41°22' E 002°11'0 0.0
2019-Jul-21 10:59N 41°22' E 002°11'0 0.0
2019-Jul-21 10:29N 41°22' E 002°11'0 0.0
2019-Jul-21 09:59N 41°22' E 002°11'0 0.0
2019-Jul-21 09:29N 41°22' E 002°11'0 0.0
2019-Jul-21 08:59N 41°22' E 002°11'0 0.0
2019-Jul-21 08:29N 41°22' E 002°11'0 0.0
2019-Jul-21 07:59N 41°22' E 002°11'0 0.0
2019-Jul-21 07:29N 41°22' E 002°11'0 0.0
2019-Jul-21 06:59N 41°22' E 002°11'0 0.0
2019-Jul-21 06:29N 41°22' E 002°11'0 0.0
2019-Jul-21 05:56N 41°22' E 002°11'0 0.0
2019-Jul-21 05:26N 41°22' E 002°11'0 0.0
2019-Jul-21 04:59N 41°22' E 002°11'0 0.0
2019-Jul-21 04:29N 41°22' E 002°11'0 0.0
2019-Jul-21 03:59N 41°22' E 002°11'0 0.0
2019-Jul-21 03:29N 41°22' E 002°11'0 0.1
2019-Jul-21 03:00N 41°22' E 002°11'2 4.4
2019-Jul-21 02:30N 41°19' E 002°10'510.1
2019-Jul-21 02:01N 41°15' E 002°13'816.0
2019-Jul-21 01:31N 41°13' E 002°23'816.7
2019-Jul-21 01:01N 41°14' E 002°34'917.1
2019-Jul-21 00:29N 41°14' E 002°46'817.2
2019-Jul-21 00:00N 41°14' E 002°57'7681.5
2019-Jul-21 00:00N 41°12' E 003°06'3 5.5 080 / 51019.810.8 25.0 28.0
2019-Jul-20 23:29N 41°14' E 003°09'1217.1
2019-Jul-20 22:46N 41°14' E 003°25'517.1
2019-Jul-20 22:30N 41°14' E 003°31'1016.9
2019-Jul-20 21:55N 41°14' E 003°44'3017.1
2019-Jul-20 20:11N 41°14' E 004°24'13217.0
2019-Jul-20 12:24N 41°16' E 007°20'717.0
2019-Jul-20 12:00N 41°16' E 007°29'817.0
2019-Jul-20 11:30N 41°16' E 007°40'918.7
2019-Jul-20 11:00N 41°16' E 007°53'815.1
2019-Jul-20 10:28N 41°16' E 008°04'817.0
2019-Jul-20 09:59N 41°16' E 008°15'817.0
2019-Jul-20 09:30N 41°16' E 008°25'817.0
2019-Jul-20 09:01N 41°16' E 008°37'917.9
2019-Jul-20 08:31N 41°16' E 008°48'3317.0
2019-Jul-20 06:34N 41°22' E 009°32'116.9
2019-Jul-20 06:31N 41°22' E 009°33'1817.0
2019-Jul-20 05:29N 41°20' E 009°56'1817.5
2019-Jul-20 04:26N 41°16' E 010°20'3017.4
2019-Jul-20 02:43N 41°08' E 010°58'1117.1
2019-Jul-20 02:03N 41°06' E 011°13'10 9.5
2019-Jul-20 01:00N 41°00' E 011°24'2428.1 170 / 61016.710.8 24.0 28.0
2019-Jul-20 00:08N 40°58' E 011°56'217.3
2019-Jul-20 00:00N 40°57' E 011°59'9217.3
2019-Jul-19 18:41N 40°36' E 013°57'317.4
2019-Jul-19 18:31N 40°37' E 014°01'917.4
2019-Jul-19 18:01N 40°42' E 014°10'816.6
2019-Jul-19 17:31N 40°49' E 014°17'2 3.5
2019-Jul-19 17:00N 40°50' E 014°16'0 0.0
2019-Jul-19 16:28N 40°50' E 014°16'0 0.0
2019-Jul-19 16:00N 40°50' E 014°16'0 0.0
2019-Jul-19 15:31N 40°50' E 014°16'0 0.0
2019-Jul-19 14:55N 40°50' E 014°16'0 0.0
2019-Jul-19 14:28N 40°50' E 014°16'0 0.0
2019-Jul-19 14:01N 40°50' E 014°16'0 0.0
2019-Jul-19 13:30N 40°50' E 014°16'0 0.0
2019-Jul-19 13:01N 40°50' E 014°16'0 0.0
2019-Jul-19 12:31N 40°50' E 014°16'0 0.0
2019-Jul-19 12:01N 40°50' E 014°16'0 0.0
2019-Jul-19 11:28N 40°50' E 014°16'0 0.0
2019-Jul-19 11:00N 40°50' E 014°16'0 0.0
2019-Jul-19 10:31N 40°50' E 014°16'0 0.0
2019-Jul-19 10:01N 40°50' E 014°16'0 0.0
2019-Jul-19 09:31N 40°50' E 014°16'0 0.0
2019-Jul-19 09:00N 40°50' E 014°16'0 0.0
2019-Jul-19 08:31N 40°50' E 014°16'0 0.0
2019-Jul-19 08:01N 40°50' E 014°16'0 0.0
2019-Jul-19 07:30N 40°50' E 014°16'0 0.0
2019-Jul-19 07:01N 40°50' E 014°16'0 0.0
2019-Jul-19 06:31N 40°50' E 014°16'0 0.0
2019-Jul-19 06:00N 40°50' E 014°16'0 0.0
2019-Jul-19 05:31N 40°50' E 014°16'0 0.0
2019-Jul-19 05:01N 40°50' E 014°16'0 0.0
2019-Jul-19 04:31N 40°50' E 014°16'0 0.5
2019-Jul-19 04:01N 40°50' E 014°16'510.0
2019-Jul-19 03:30N 40°45' E 014°14'918.2
2019-Jul-19 03:01N 40°39' E 014°05'918.2
2019-Jul-19 02:30N 40°37' E 013°53'918.2
2019-Jul-19 02:01N 40°39' E 013°41'2726.6
2019-Jul-19 01:00N 40°42' E 013°06'9516.5 060 / 21014.810.8 24.0 28.0
2019-Jul-18 19:15N 41°55' E 011°46'916.2
2019-Jul-18 18:43N 42°03' E 011°41'314.5
2019-Jul-18 18:31N 42°06' E 011°43'36 2.2
2019-Jul-18 01:57N 42°13' E 010°55'920.2
2019-Jul-18 01:31N 42°18' E 010°45'1020.1
2019-Jul-18 01:00N 42°24' E 010°34'1020.1
2019-Jul-18 00:30N 42°30' E 010°23'4 7.9
2019-Jul-18 00:00N 42°30' E 010°18'1347.0 060 / 91011.710.8 23.0 27.0
2019-Jul-17 23:43N 42°40' E 010°06'420.1
2019-Jul-17 23:30N 42°42' E 010°01'1020.6
2019-Jul-17 23:00N 42°48' E 009°50'1319.3
2019-Jul-17 22:21N 42°57' E 009°37'720.1
2019-Jul-17 22:01N 43°03' E 009°35'1020.3
2019-Jul-17 21:30N 43°13' E 009°32'1120.4
2019-Jul-17 20:57N 43°25' E 009°33'920.2
2019-Jul-17 20:31N 43°33' E 009°36'1020.4
2019-Jul-17 20:00N 43°42' E 009°42'1020.2
2019-Jul-17 19:31N 43°51' E 009°48'917.8
2019-Jul-17 19:01N 43°60' E 009°52'611.9
2019-Jul-17 18:30N 44°06' E 009°51'1 1.5
2019-Jul-17 17:59N 44°07' E 009°50'0 0.0
2019-Jul-17 17:29N 44°07' E 009°50'0 0.0
2019-Jul-17 16:59N 44°07' E 009°50'0 0.0
2019-Jul-17 16:29N 44°07' E 009°50'0 0.0
2019-Jul-17 15:59N 44°07' E 009°50'0 0.0
2019-Jul-17 15:29N 44°07' E 009°50'0 0.0
2019-Jul-17 14:59N 44°07' E 009°50'0 0.0
2019-Jul-17 14:29N 44°07' E 009°50'0 0.0
2019-Jul-17 13:59N 44°07' E 009°50'0 0.0
2019-Jul-17 13:29N 44°07' E 009°50'0 0.0
2019-Jul-17 12:59N 44°07' E 009°50'0 0.0
2019-Jul-17 12:29N 44°07' E 009°50'0 0.0
2019-Jul-17 11:59N 44°07' E 009°50'0 0.0
2019-Jul-17 11:29N 44°07' E 009°50'0 0.0
2019-Jul-17 10:56N 44°07' E 009°50'0 0.0
2019-Jul-17 10:29N 44°07' E 009°50'0 0.0
2019-Jul-17 09:59N 44°07' E 009°50'0 0.0
2019-Jul-17 09:29N 44°07' E 009°50'0 0.0
2019-Jul-17 08:59N 44°07' E 009°50'0 0.0
2019-Jul-17 08:29N 44°07' E 009°50'0 0.0
2019-Jul-17 07:55N 44°07' E 009°50'0 0.0
2019-Jul-17 07:28N 44°07' E 009°50'0 0.0
2019-Jul-17 06:55N 44°07' E 009°50'0 0.0
2019-Jul-17 06:28N 44°07' E 009°50'1 3.1
2019-Jul-17 06:01N 44°05' E 009°51'713.5
2019-Jul-17 05:30N 43°60' E 009°57'714.0
2019-Jul-17 05:00N 43°54' E 009°52'917.6
2019-Jul-17 04:30N 43°50' E 009°41'917.9
2019-Jul-17 04:00N 43°48' E 009°29'918.1
2019-Jul-17 03:30N 43°44' E 009°17'917.9
2019-Jul-17 03:00N 43°41' E 009°06'917.7
2019-Jul-17 02:30N 43°37' E 008°55'917.7
2019-Jul-17 02:00N 43°32' E 008°44'917.6
2019-Jul-17 01:30N 43°29' E 008°33'917.4
2019-Jul-17 01:00N 43°25' E 008°22'917.3
2019-Jul-17 00:30N 43°21' E 008°12'917.2
2019-Jul-17 00:00N 43°18' E 008°01'4241.2
2019-Jul-17 00:00N 43°18' E 008°06'1225.4 190 / 121013.710.8 22.0 24.0
2019-Jul-16 23:30N 43°14' E 007°50'917.5
2019-Jul-16 23:01N 43°11' E 007°39'917.6
2019-Jul-16 22:30N 43°07' E 007°28'917.5
2019-Jul-16 22:00N 43°04' E 007°17'917.4
2019-Jul-16 21:30N 43°00' E 007°06'917.2
2019-Jul-16 21:00N 42°57' E 006°55'917.1
2019-Jul-16 20:30N 42°54' E 006°44'917.7
2019-Jul-16 20:00N 42°53' E 006°32'1117.9
2019-Jul-16 19:23N 42°54' E 006°17'2017.7
2019-Jul-16 18:17N 42°57' E 005°51'518.4
2019-Jul-16 17:59N 42°60' E 005°44'1318.3
2019-Jul-16 17:17N 43°06' E 005°29'517.9
2019-Jul-16 17:00N 43°08' E 005°23'13 3.1
2019-Jul-16 12:57N 43°21' E 005°20'0 0.0
2019-Jul-16 12:21N 43°21' E 005°20'105 9.2
2019-Jul-16 01:00N 41°54' E 004°00'16416.4 350 / 201013.727.0 25.0 26.0
2019-Jul-15 15:01N 39°26' E 002°29'017.9
2019-Jul-15 15:00N 39°26' E 002°29'815.3
2019-Jul-15 14:30N 39°30' E 002°37'3 5.7
2019-Jul-15 14:00N 39°33' E 002°38'0 0.3
2019-Jul-15 13:28N 39°33' E 002°38'0 0.0
2019-Jul-15 12:58N 39°33' E 002°38'0 0.0
2019-Jul-15 12:28N 39°33' E 002°38'0 0.0
2019-Jul-15 11:58N 39°33' E 002°38'0 0.0
2019-Jul-15 11:28N 39°33' E 002°38'0 0.0
2019-Jul-15 10:58N 39°33' E 002°38'0 0.0
2019-Jul-15 10:28N 39°33' E 002°38'0 0.0
2019-Jul-15 09:58N 39°33' E 002°38'0 0.0
2019-Jul-15 09:28N 39°33' E 002°38'0 0.0
2019-Jul-15 08:58N 39°33' E 002°38'0 0.0
2019-Jul-15 08:28N 39°33' E 002°38'0 0.0
2019-Jul-15 07:58N 39°33' E 002°38'0 0.0
2019-Jul-15 07:28N 39°33' E 002°38'0 0.0
2019-Jul-15 06:58N 39°33' E 002°38'0 0.0
2019-Jul-15 06:28N 39°33' E 002°38'0 0.0
2019-Jul-15 05:58N 39°33' E 002°38'0 0.1
2019-Jul-15 05:30N 39°33' E 002°38'1 1.5
2019-Jul-15 05:00N 39°32' E 002°38'510.6
2019-Jul-15 04:30N 39°28' E 002°35'510.2
2019-Jul-15 04:00N 39°24' E 002°31'510.4
2019-Jul-15 03:30N 39°22' E 002°24'610.8
2019-Jul-15 02:57N 39°26' E 002°18'19 9.7
2019-Jul-15 01:00N 39°42' E 002°06'100 8.4 260 / 151011.710.8 25.0 28.0
2019-Jul-14 13:08N 41°22' E 002°11'0 0.0
2019-Jul-14 12:59N 41°22' E 002°11'0 0.0
2019-Jul-14 12:29N 41°22' E 002°11'0 0.0
2019-Jul-14 11:59N 41°22' E 002°11'0 0.0
2019-Jul-14 11:29N 41°22' E 002°11'0 0.0
2019-Jul-14 10:56N 41°22' E 002°11'0 0.0
2019-Jul-14 10:29N 41°22' E 002°11'0 0.0
2019-Jul-14 09:59N 41°22' E 002°11'0 0.0
2019-Jul-14 09:29N 41°22' E 002°11'0 0.0
2019-Jul-14 08:59N 41°22' E 002°11'60 6.0
2019-Jul-13 23:04N 41°14' E 003°29'120.4
2019-Jul-13 23:00N 41°14' E 003°31'6347.2
2019-Jul-13 23:00N 41°12' E 003°24'3023.1 300 / 81011.727.0 25.0 28.0
2019-Jul-13 21:42N 41°14' E 004°04'417.3
2019-Jul-13 21:28N 41°14' E 004°09'32416.6
2019-Jul-13 02:00N 41°00' E 011°18'12316.3 300 / 261009.710.8 25.0 28.0
2019-Jul-12 18:25N 40°36' E 013°58'818.0
2019-Jul-12 18:00N 40°40' E 014°07'917.2
2019-Jul-12 17:30N 40°46' E 014°14'4 8.7
2019-Jul-12 17:00N 40°50' E 014°16'0 0.1
2019-Jul-12 16:27N 40°50' E 014°16'0 0.0
2019-Jul-12 15:57N 40°50' E 014°16'0 0.0
2019-Jul-12 15:30N 40°50' E 014°16'0 0.0
2019-Jul-12 15:00N 40°50' E 014°16'0 0.0
2019-Jul-12 14:30N 40°50' E 014°16'0 0.0
2019-Jul-12 14:00N 40°50' E 014°16'0 0.0
2019-Jul-12 13:21N 40°50' E 014°16'0 0.0
2019-Jul-12 13:00N 40°50' E 014°16'0 0.0
2019-Jul-12 12:30N 40°50' E 014°16'0 0.0
2019-Jul-12 11:54N 40°50' E 014°16'0 0.0
2019-Jul-12 11:30N 40°50' E 014°16'0 0.0
2019-Jul-12 11:00N 40°50' E 014°16'0 0.0
2019-Jul-12 10:30N 40°50' E 014°16'0 0.0
2019-Jul-12 09:57N 40°50' E 014°16'0 0.0
2019-Jul-12 09:27N 40°50' E 014°16'0 0.0
2019-Jul-12 09:00N 40°50' E 014°16'0 0.0
2019-Jul-12 08:30N 40°50' E 014°16'0 0.0
2019-Jul-12 08:00N 40°50' E 014°16'0 0.0
2019-Jul-12 07:30N 40°50' E 014°16'0 0.0
2019-Jul-12 07:00N 40°50' E 014°16'0 0.0
2019-Jul-12 06:30N 40°50' E 014°16'0 0.0
2019-Jul-12 06:00N 40°50' E 014°16'0 0.0
2019-Jul-12 05:30N 40°50' E 014°16'  
Track history (hours):
 
Tides and Currents Weather Stations Pressure Air Temp Water Temp Dewpoint Dewpoint Depression Visibility Wind Speed Wind Dir Waves Ship Positions

Oasis of the Seas

Last reported at 2019-Jul-22 05:30 UTC. Time now 2019-Jul-22 05:42 UTC.
Position N 39°33' E 002°38'.

Length 360 m; draft 9.3 m.

Type: Passenger vessel. MMSI: 311020600.

Date/timePositionNaut miles runAvg speedWind from/ knotsBaromVisibWave heightAir tempDewpointWater temp
2019-Jul-22 05:30N 39°33' E 002°38'1 2.2
2019-Jul-22 05:00N 39°32' E 002°38'5 9.2
2019-Jul-22 04:30N 39°28' E 002°35'510.7
2019-Jul-22 04:00N 39°24' E 002°31'510.7
2019-Jul-22 03:30N 39°22' E 002°25'510.5
2019-Jul-22 02:59N 39°25' E 002°19'1111.1
2019-Jul-22 02:00N 39°30' E 002°06'9911.5 070 / 81021.810.8 26.0 29.0
2019-Jul-21 17:24N 41°09' E 002°10'511.4
2019-Jul-21 17:01N 41°13' E 002°10'611.3
2019-Jul-21 16:31N 41°19' E 002°10'3 5.5
2019-Jul-21 16:00N 41°22' E 002°11'0 0.2
2019-Jul-21 15:29N 41°22' E 002°11'0 0.0
2019-Jul-21 14:56N 41°22' E 002°11'0 0.0
2019-Jul-21 14:29N 41°22' E 002°11'0 0.0
2019-Jul-21 13:59N 41°22' E 002°11'0 0.0
2019-Jul-21 13:29N 41°22' E 002°11'0 0.0
2019-Jul-21 12:59N 41°22' E 002°11'0 0.0
2019-Jul-21 12:29N 41°22' E 002°11'0 0.0
2019-Jul-21 11:59N 41°22' E 002°11'0 0.0
2019-Jul-21 11:29N 41°22' E 002°11'0 0.0
2019-Jul-21 10:59N 41°22' E 002°11'0 0.0
2019-Jul-21 10:29N 41°22' E 002°11'0 0.0
2019-Jul-21 09:59N 41°22' E 002°11'0 0.0
2019-Jul-21 09:29N 41°22' E 002°11'0 0.0
2019-Jul-21 08:59N 41°22' E 002°11'0 0.0
2019-Jul-21 08:29N 41°22' E 002°11'0 0.0
2019-Jul-21 07:59N 41°22' E 002°11'0 0.0
2019-Jul-21 07:29N 41°22' E 002°11'0 0.0
2019-Jul-21 06:59N 41°22' E 002°11'0 0.0
2019-Jul-21 06:29N 41°22' E 002°11'0 0.0
2019-Jul-21 05:56N 41°22' E 002°11'0 0.0
2019-Jul-21 05:26N 41°22' E 002°11'0 0.0
2019-Jul-21 04:59N 41°22' E 002°11'0 0.0
2019-Jul-21 04:29N 41°22' E 002°11'0 0.0
2019-Jul-21 03:59N 41°22' E 002°11'0 0.0
2019-Jul-21 03:29N 41°22' E 002°11'0 0.1
2019-Jul-21 03:00N 41°22' E 002°11'2 4.4
2019-Jul-21 02:30N 41°19' E 002°10'510.1
2019-Jul-21 02:01N 41°15' E 002°13'816.0
2019-Jul-21 01:31N 41°13' E 002°23'816.7
2019-Jul-21 01:01N 41°14' E 002°34'917.1
2019-Jul-21 00:29N 41°14' E 002°46'817.2
2019-Jul-21 00:00N 41°14' E 002°57'7681.5
2019-Jul-21 00:00N 41°12' E 003°06'3 5.5 080 / 51019.810.8 25.0 28.0
2019-Jul-20 23:29N 41°14' E 003°09'1217.1
2019-Jul-20 22:46N 41°14' E 003°25'517.1
2019-Jul-20 22:30N 41°14' E 003°31'1016.9
2019-Jul-20 21:55N 41°14' E 003°44'3017.1
2019-Jul-20 20:11N 41°14' E 004°24'13217.0
2019-Jul-20 12:24N 41°16' E 007°20'717.0
2019-Jul-20 12:00N 41°16' E 007°29'817.0
2019-Jul-20 11:30N 41°16' E 007°40'918.7
2019-Jul-20 11:00N 41°16' E 007°53'815.1
2019-Jul-20 10:28N 41°16' E 008°04'817.0
2019-Jul-20 09:59N 41°16' E 008°15'817.0
2019-Jul-20 09:30N 41°16' E 008°25'817.0
2019-Jul-20 09:01N 41°16' E 008°37'917.9
2019-Jul-20 08:31N 41°16' E 008°48'3317.0
2019-Jul-20 06:34N 41°22' E 009°32'116.9
2019-Jul-20 06:31N 41°22' E 009°33'1817.0
2019-Jul-20 05:29N 41°20' E 009°56'1817.5
2019-Jul-20 04:26N 41°16' E 010°20'3017.4
2019-Jul-20 02:43N 41°08' E 010°58'1117.1
2019-Jul-20 02:03N 41°06' E 011°13'10 9.5
2019-Jul-20 01:00N 41°00' E 011°24'2428.1 170 / 61016.710.8 24.0 28.0
2019-Jul-20 00:08N 40°58' E 011°56'217.3
2019-Jul-20 00:00N 40°57' E 011°59'9217.3
2019-Jul-19 18:41N 40°36' E 013°57'317.4
2019-Jul-19 18:31N 40°37' E 014°01'917.4
2019-Jul-19 18:01N 40°42' E 014°10'816.6
2019-Jul-19 17:31N 40°49' E 014°17'2 3.5
2019-Jul-19 17:00N 40°50' E 014°16'0 0.0
2019-Jul-19 16:28N 40°50' E 014°16'0 0.0
2019-Jul-19 16:00N 40°50' E 014°16'0 0.0
2019-Jul-19 15:31N 40°50' E 014°16'0 0.0
2019-Jul-19 14:55N 40°50' E 014°16'0 0.0
2019-Jul-19 14:28N 40°50' E 014°16'0 0.0
2019-Jul-19 14:01N 40°50' E 014°16'0 0.0
2019-Jul-19 13:30N 40°50' E 014°16'0 0.0
2019-Jul-19 13:01N 40°50' E 014°16'0 0.0
2019-Jul-19 12:31N 40°50' E 014°16'0 0.0
2019-Jul-19 12:01N 40°50' E 014°16'0 0.0
2019-Jul-19 11:28N 40°50' E 014°16'0 0.0
2019-Jul-19 11:00N 40°50' E 014°16'0 0.0
2019-Jul-19 10:31N 40°50' E 014°16'0 0.0
2019-Jul-19 10:01N 40°50' E 014°16'0 0.0
2019-Jul-19 09:31N 40°50' E 014°16'0 0.0
2019-Jul-19 09:00N 40°50' E 014°16'0 0.0
2019-Jul-19 08:31N 40°50' E 014°16'0 0.0
2019-Jul-19 08:01N 40°50' E 014°16'0 0.0
2019-Jul-19 07:30N 40°50' E 014°16'0 0.0
2019-Jul-19 07:01N 40°50' E 014°16'0 0.0
2019-Jul-19 06:31N 40°50' E 014°16'0 0.0
2019-Jul-19 06:00N 40°50' E 014°16'0 0.0
2019-Jul-19 05:31N 40°50' E 014°16'0 0.0
2019-Jul-19 05:01N 40°50' E 014°16'0 0.0
2019-Jul-19 04:31N 40°50' E 014°16'0 0.5
2019-Jul-19 04:01N 40°50' E 014°16'510.0
2019-Jul-19 03:30N 40°45' E 014°14'918.2
2019-Jul-19 03:01N 40°39' E 014°05'918.2
2019-Jul-19 02:30N 40°37' E 013°53'918.2
2019-Jul-19 02:01N 40°39' E 013°41'2726.6
2019-Jul-19 01:00N 40°42' E 013°06'9516.5 060 / 21014.810.8 24.0 28.0
2019-Jul-18 19:15N 41°55' E 011°46'916.2
2019-Jul-18 18:43N 42°03' E 011°41'314.5
2019-Jul-18 18:31N 42°06' E 011°43'36 2.2
2019-Jul-18 01:57N 42°13' E 010°55'920.2
2019-Jul-18 01:31N 42°18' E 010°45'1020.1
2019-Jul-18 01:00N 42°24' E 010°34'1020.1
2019-Jul-18 00:30N 42°30' E 010°23'4 7.9
2019-Jul-18 00:00N 42°30' E 010°18'1347.0 060 / 91011.710.8 23.0 27.0
2019-Jul-17 23:43N 42°40' E 010°06'420.1
2019-Jul-17 23:30N 42°42' E 010°01'1020.6
2019-Jul-17 23:00N 42°48' E 009°50'1319.3
2019-Jul-17 22:21N 42°57' E 009°37'720.1
2019-Jul-17 22:01N 43°03' E 009°35'1020.3
2019-Jul-17 21:30N 43°13' E 009°32'1120.4
2019-Jul-17 20:57N 43°25' E 009°33'920.2
2019-Jul-17 20:31N 43°33' E 009°36'1020.4
2019-Jul-17 20:00N 43°42' E 009°42'1020.2
2019-Jul-17 19:31N 43°51' E 009°48'917.8
2019-Jul-17 19:01N 43°60' E 009°52'611.9
2019-Jul-17 18:30N 44°06' E 009°51'1 1.5
2019-Jul-17 17:59N 44°07' E 009°50'0 0.0
2019-Jul-17 17:29N 44°07' E 009°50'0 0.0
2019-Jul-17 16:59N 44°07' E 009°50'0 0.0
2019-Jul-17 16:29N 44°07' E 009°50'0 0.0
2019-Jul-17 15:59N 44°07' E 009°50'0 0.0
2019-Jul-17 15:29N 44°07' E 009°50'0 0.0
2019-Jul-17 14:59N 44°07' E 009°50'0 0.0
2019-Jul-17 14:29N 44°07' E 009°50'0 0.0
2019-Jul-17 13:59N 44°07' E 009°50'0 0.0
2019-Jul-17 13:29N 44°07' E 009°50'0 0.0
2019-Jul-17 12:59N 44°07' E 009°50'0 0.0
2019-Jul-17 12:29N 44°07' E 009°50'0 0.0
2019-Jul-17 11:59N 44°07' E 009°50'0 0.0
2019-Jul-17 11:29N 44°07' E 009°50'0 0.0
2019-Jul-17 10:56N 44°07' E 009°50'0 0.0
2019-Jul-17 10:29N 44°07' E 009°50'0 0.0
2019-Jul-17 09:59N 44°07' E 009°50'0 0.0
2019-Jul-17 09:29N 44°07' E 009°50'0 0.0
2019-Jul-17 08:59N 44°07' E 009°50'0 0.0
2019-Jul-17 08:29N 44°07' E 009°50'0 0.0
2019-Jul-17 07:55N 44°07' E 009°50'0 0.0
2019-Jul-17 07:28N 44°07' E 009°50'0 0.0
2019-Jul-17 06:55N 44°07' E 009°50'0 0.0
2019-Jul-17 06:28N 44°07' E 009°50'1 3.1
2019-Jul-17 06:01N 44°05' E 009°51'713.5
2019-Jul-17 05:30N 43°60' E 009°57'714.0
2019-Jul-17 05:00N 43°54' E 009°52'917.6
2019-Jul-17 04:30N 43°50' E 009°41'917.9
2019-Jul-17 04:00N 43°48' E 009°29'918.1
2019-Jul-17 03:30N 43°44' E 009°17'917.9
2019-Jul-17 03:00N 43°41' E 009°06'917.7
2019-Jul-17 02:30N 43°37' E 008°55'917.7
2019-Jul-17 02:00N 43°32' E 008°44'917.6
2019-Jul-17 01:30N 43°29' E 008°33'917.4
2019-Jul-17 01:00N 43°25' E 008°22'917.3
2019-Jul-17 00:30N 43°21' E 008°12'917.2
2019-Jul-17 00:00N 43°18' E 008°01'4241.2
2019-Jul-17 00:00N 43°18' E 008°06'1225.4 190 / 121013.710.8 22.0 24.0
2019-Jul-16 23:30N 43°14' E 007°50'917.5
2019-Jul-16 23:01N 43°11' E 007°39'917.6
2019-Jul-16 22:30N 43°07' E 007°28'917.5
2019-Jul-16 22:00N 43°04' E 007°17'917.4
2019-Jul-16 21:30N 43°00' E 007°06'917.2
2019-Jul-16 21:00N 42°57' E 006°55'917.1
2019-Jul-16 20:30N 42°54' E 006°44'917.7
2019-Jul-16 20:00N 42°53' E 006°32'1117.9
2019-Jul-16 19:23N 42°54' E 006°17'2017.7
2019-Jul-16 18:17N 42°57' E 005°51'518.4
2019-Jul-16 17:59N 42°60' E 005°44'1318.3
2019-Jul-16 17:17N 43°06' E 005°29'517.9
2019-Jul-16 17:00N 43°08' E 005°23'13 3.1
2019-Jul-16 12:57N 43°21' E 005°20'0 0.0
2019-Jul-16 12:21N 43°21' E 005°20'105 9.2
2019-Jul-16 01:00N 41°54' E 004°00'16416.4 350 / 201013.727.0 25.0 26.0
2019-Jul-15 15:01N 39°26' E 002°29'017.9
2019-Jul-15 15:00N 39°26' E 002°29'815.3
2019-Jul-15 14:30N 39°30' E 002°37'3 5.7
2019-Jul-15 14:00N 39°33' E 002°38'0 0.3
2019-Jul-15 13:28N 39°33' E 002°38'0 0.0
2019-Jul-15 12:58N 39°33' E 002°38'0 0.0
2019-Jul-15 12:28N 39°33' E 002°38'0 0.0
2019-Jul-15 11:58N 39°33' E 002°38'0 0.0
2019-Jul-15 11:28N 39°33' E 002°38'0 0.0
2019-Jul-15 10:58N 39°33' E 002°38'0 0.0
2019-Jul-15 10:28N 39°33' E 002°38'0 0.0
2019-Jul-15 09:58N 39°33' E 002°38'0 0.0
2019-Jul-15 09:28N 39°33' E 002°38'0 0.0
2019-Jul-15 08:58N 39°33' E 002°38'0 0.0
2019-Jul-15 08:28N 39°33' E 002°38'0 0.0
2019-Jul-15 07:58N 39°33' E 002°38'0 0.0
2019-Jul-15 07:28N 39°33' E 002°38'0 0.0
2019-Jul-15 06:58N 39°33' E 002°38'0 0.0
2019-Jul-15 06:28N 39°33' E 002°38'0 0.0
2019-Jul-15 05:58N 39°33' E 002°38'0 0.1
2019-Jul-15 05:30N 39°33' E 002°38'1 1.5
2019-Jul-15 05:00N 39°32' E 002°38'510.6
2019-Jul-15 04:30N 39°28' E 002°35'510.2
2019-Jul-15 04:00N 39°24' E 002°31'510.4
2019-Jul-15 03:30N 39°22' E 002°24'610.8
2019-Jul-15 02:57N 39°26' E 002°18'19 9.7
2019-Jul-15 01:00N 39°42' E 002°06'100 8.4 260 / 151011.710.8 25.0 28.0
2019-Jul-14 13:08N 41°22' E 002°11'0 0.0
2019-Jul-14 12:59N 41°22' E 002°11'0 0.0
2019-Jul-14 12:29N 41°22' E 002°11'0 0.0
2019-Jul-14 11:59N 41°22' E 002°11'0 0.0
2019-Jul-14 11:29N 41°22' E 002°11'0 0.0
2019-Jul-14 10:56N 41°22' E 002°11'0 0.0
2019-Jul-14 10:29N 41°22' E 002°11'0 0.0
2019-Jul-14 09:59N 41°22' E 002°11'0 0.0
2019-Jul-14 09:29N 41°22' E 002°11'0 0.0
2019-Jul-14 08:59N 41°22' E 002°11'60 6.0
2019-Jul-13 23:04N 41°14' E 003°29'120.4
2019-Jul-13 23:00N 41°14' E 003°31'6347.2
2019-Jul-13 23:00N 41°12' E 003°24'3023.1 300 / 81011.727.0 25.0 28.0
2019-Jul-13 21:42N 41°14' E 004°04'417.3
2019-Jul-13 21:28N 41°14' E 004°09'32416.6
2019-Jul-13 02:00N 41°00' E 011°18'12316.3 300 / 261009.710.8 25.0 28.0
2019-Jul-12 18:25N 40°36' E 013°58'818.0
2019-Jul-12 18:00N 40°40' E 014°07'917.2
2019-Jul-12 17:30N 40°46' E 014°14'4 8.7
2019-Jul-12 17:00N 40°50' E 014°16'0 0.1
2019-Jul-12 16:27N 40°50' E 014°16'0 0.0
2019-Jul-12 15:57N 40°50' E 014°16'0 0.0
2019-Jul-12 15:30N 40°50' E 014°16'0 0.0
2019-Jul-12 15:00N 40°50' E 014°16'0 0.0
2019-Jul-12 14:30N 40°50' E 014°16'0 0.0
2019-Jul-12 14:00N 40°50' E 014°16'0 0.0
2019-Jul-12 13:21N 40°50' E 014°16'0 0.0
2019-Jul-12 13:00N 40°50' E 014°16'0 0.0
2019-Jul-12 12:30N 40°50' E 014°16'0 0.0
2019-Jul-12 11:54N 40°50' E 014°16'0 0.0
2019-Jul-12 11:30N 40°50' E 014°16'0 0.0
2019-Jul-12 11:00N 40°50' E 014°16'0 0.0
2019-Jul-12 10:30N 40°50' E 014°16'0 0.0
2019-Jul-12 09:57N 40°50' E 014°16'0 0.0
2019-Jul-12 09:27N 40°50' E 014°16'0 0.0
2019-Jul-12 09:00N 40°50' E 014°16'0 0.0
2019-Jul-12 08:30N 40°50' E 014°16'0 0.0
2019-Jul-12 08:00N 40°50' E 014°16'0 0.0
2019-Jul-12 07:30N 40°50' E 014°16'0 0.0
2019-Jul-12 07:00N 40°50' E 014°16'0 0.0
2019-Jul-12 06:30N 40°50' E 014°16'0 0.0
2019-Jul-12 06:00N 40°50' E 014°16'0 0.0
2019-Jul-12 05:30N 40°50' E 014°16'  

Dump ship's entire track history